createdAt,value
2017-11-30T00:00:27.345Z,1.02
2017-11-30T00:02:54.956Z,0.98
2017-11-30T00:05:22.536Z,0.96
2017-11-30T00:07:50.101Z,0.90
2017-11-30T00:10:17.675Z,0.88
2017-11-30T00:12:45.243Z,0.99
2017-11-30T00:15:12.875Z,0.90
2017-11-30T00:17:41.455Z,0.88
2017-11-30T00:20:09.029Z,0.88
2017-11-30T00:22:36.607Z,0.99
2017-11-30T00:25:04.175Z,0.96
2017-11-30T00:27:31.805Z,1.00
2017-11-30T00:29:59.416Z,0.89
2017-11-30T00:32:26.990Z,0.89
2017-11-30T00:34:54.562Z,0.80
2017-11-30T00:37:22.827Z,0.92
2017-11-30T00:39:50.424Z,0.87
2017-11-30T00:42:29.857Z,0.71
2017-11-30T00:44:57.526Z,0.64
2017-11-30T00:47:25.101Z,0.62
2017-11-30T00:49:53.486Z,0.61
2017-11-30T00:52:21.134Z,0.67
2017-11-30T00:54:49.652Z,0.81
2017-11-30T00:57:18.017Z,0.83
2017-11-30T00:59:46.343Z,0.90
2017-11-30T01:02:13.917Z,0.88
2017-11-30T01:04:41.494Z,0.84
2017-11-30T01:07:09.150Z,0.81
2017-11-30T01:09:37.615Z,0.84
2017-11-30T01:12:05.918Z,0.75
2017-11-30T01:14:34.366Z,0.84
2017-11-30T01:17:01.930Z,0.61
2017-11-30T01:19:30.299Z,0.56
2017-11-30T01:21:58.718Z,0.51
2017-11-30T01:24:27.082Z,0.52
2017-11-30T01:26:54.758Z,0.42
2017-11-30T01:29:23.257Z,0.44
2017-11-30T01:31:50.905Z,0.39
2017-11-30T01:34:19.391Z,0.40
2017-11-30T01:36:46.963Z,0.45
2017-11-30T01:39:14.577Z,0.44
2017-11-30T01:41:42.184Z,0.55
2017-11-30T01:44:10.659Z,0.55
2017-11-30T01:46:38.319Z,0.61
2017-11-30T01:49:05.916Z,0.69
2017-11-30T01:51:34.325Z,0.76
2017-11-30T01:54:01.890Z,0.80
2017-11-30T01:56:29.490Z,0.88
2017-11-30T01:58:57.202Z,0.88
2017-11-30T02:01:24.827Z,0.89
2017-11-30T02:03:52.401Z,0.87
2017-11-30T02:06:20.001Z,0.95
2017-11-30T02:08:47.590Z,1.03
2017-11-30T02:11:15.189Z,1.16
2017-11-30T02:13:42.827Z,1.18
2017-11-30T02:16:10.432Z,1.25
2017-11-30T02:18:38.025Z,1.07
2017-11-30T02:21:05.621Z,1.16
2017-11-30T02:23:33.258Z,1.22
2017-11-30T02:26:01.638Z,1.24
2017-11-30T02:28:29.202Z,1.30
2017-11-30T02:30:56.796Z,1.21
2017-11-30T02:33:24.374Z,1.18
2017-11-30T02:35:51.985Z,1.28
2017-11-30T02:38:19.616Z,1.32
2017-11-30T02:40:47.680Z,1.39
2017-11-30T02:43:16.780Z,1.34
2017-11-30T02:45:44.346Z,1.34
2017-11-30T02:48:12.690Z,1.42
2017-11-30T02:50:40.254Z,1.26
2017-11-30T02:53:07.823Z,1.21
2017-11-30T02:55:35.429Z,1.31
2017-11-30T02:58:03.055Z,1.25
2017-11-30T03:00:30.628Z,1.15
2017-11-30T03:02:58.203Z,1.25
2017-11-30T03:05:25.766Z,1.03
2017-11-30T03:07:54.126Z,1.12
2017-11-30T03:10:21.697Z,1.04
2017-11-30T03:12:49.274Z,1.04
2017-11-30T03:15:16.872Z,1.11
2017-11-30T03:17:44.510Z,1.09
2017-11-30T03:20:12.090Z,1.13
2017-11-30T03:22:40.717Z,1.08
2017-11-30T03:25:08.321Z,1.07
2017-11-30T03:27:35.902Z,1.10
2017-11-30T03:30:03.484Z,1.21
2017-11-30T03:32:31.061Z,1.33
2017-11-30T03:34:58.638Z,1.29
2017-11-30T03:37:26.202Z,1.39
2017-11-30T03:39:53.773Z,1.34
2017-11-30T03:42:21.387Z,1.46
2017-11-30T03:44:48.950Z,1.60
2017-11-30T03:47:16.567Z,1.64
2017-11-30T03:49:44.135Z,1.70
2017-11-30T03:52:11.701Z,1.59
2017-11-30T03:54:39.270Z,1.54
2017-11-30T03:57:06.839Z,1.57
2017-11-30T03:59:34.463Z,1.46
2017-11-30T04:02:02.983Z,1.42
2017-11-30T04:04:31.315Z,1.49
2017-11-30T04:06:58.913Z,1.68
2017-11-30T04:09:26.550Z,1.49
2017-11-30T04:11:54.218Z,1.70
2017-11-30T04:14:21.879Z,1.58
2017-11-30T04:16:49.446Z,1.62
2017-11-30T04:19:17.012Z,1.88
2017-11-30T04:21:44.583Z,1.80
2017-11-30T04:24:12.151Z,1.95
2017-11-30T04:26:40.494Z,1.77
2017-11-30T04:29:08.981Z,1.62
2017-11-30T04:31:37.343Z,1.58
2017-11-30T04:34:04.901Z,1.66
2017-11-30T04:36:32.463Z,1.79
2017-11-30T04:39:00.062Z,1.70
2017-11-30T04:41:27.630Z,1.66
2017-11-30T04:43:55.199Z,1.63
2017-11-30T04:46:22.769Z,1.58
2017-11-30T04:48:50.348Z,1.54
2017-11-30T04:51:17.921Z,1.48
2017-11-30T04:53:45.494Z,1.48
2017-11-30T04:56:13.165Z,1.45
2017-11-30T04:58:40.734Z,1.42
2017-11-30T05:01:08.297Z,1.40
2017-11-30T05:03:35.865Z,1.46
2017-11-30T05:06:03.437Z,1.54
2017-11-30T05:08:30.994Z,1.49
2017-11-30T05:10:58.554Z,1.42
2017-11-30T05:13:26.125Z,1.46
2017-11-30T05:15:53.686Z,1.56
2017-11-30T05:18:21.253Z,1.54
2017-11-30T05:20:48.885Z,1.52
2017-11-30T05:23:16.448Z,1.58
2017-11-30T05:25:44.009Z,1.72
2017-11-30T05:28:11.570Z,1.64
2017-11-30T05:30:39.221Z,1.54
2017-11-30T05:33:06.819Z,1.55
2017-11-30T05:35:35.366Z,1.81
2017-11-30T05:38:02.925Z,1.70
2017-11-30T05:40:30.489Z,1.98
2017-11-30T05:42:58.049Z,1.83
2017-11-30T05:45:25.608Z,1.80
2017-11-30T05:47:53.172Z,1.75
2017-11-30T05:50:21.637Z,1.78
2017-11-30T05:52:50.137Z,1.68
2017-11-30T05:55:17.702Z,1.68
2017-11-30T05:57:45.266Z,1.69
2017-11-30T06:00:12.917Z,1.66
2017-11-30T06:02:41.379Z,1.64
2017-11-30T06:05:08.963Z,1.58
2017-11-30T06:07:36.626Z,1.68
2017-11-30T06:10:04.194Z,1.70
2017-11-30T06:12:31.850Z,1.91
2017-11-30T06:14:59.405Z,1.99
2017-11-30T06:17:26.966Z,1.86
2017-11-30T06:19:54.795Z,1.82
2017-11-30T06:22:23.261Z,1.75
2017-11-30T06:24:50.827Z,1.77
2017-11-30T06:27:18.389Z,1.77
2017-11-30T06:29:45.956Z,1.71
2017-11-30T06:32:13.572Z,1.94
2017-11-30T06:34:41.224Z,1.98
2017-11-30T06:37:08.785Z,1.82
2017-11-30T06:39:36.346Z,1.84
2017-11-30T06:42:03.906Z,1.88
2017-11-30T06:44:31.469Z,1.80
2017-11-30T06:46:59.125Z,1.94
2017-11-30T06:49:26.718Z,1.70
2017-11-30T06:51:54.287Z,1.77
2017-11-30T06:54:22.933Z,1.81
2017-11-30T06:56:50.490Z,1.96
2017-11-30T06:59:18.050Z,2.03
2017-11-30T07:01:45.610Z,1.89
2017-11-30T07:04:13.174Z,1.85
2017-11-30T07:06:40.838Z,1.92
2017-11-30T07:09:08.396Z,1.91
2017-11-30T07:11:37.029Z,2.13
2017-11-30T07:14:05.311Z,2.14
2017-11-30T07:16:33.779Z,2.03
2017-11-30T07:19:02.375Z,2.01
2017-11-30T07:21:29.994Z,1.94
2017-11-30T07:23:58.277Z,1.88
2017-11-30T07:26:25.844Z,1.79
2017-11-30T07:28:53.469Z,1.80
2017-11-30T07:31:21.026Z,1.79
2017-11-30T07:33:48.593Z,1.78
2017-11-30T07:36:16.158Z,1.86
2017-11-30T07:38:43.845Z,1.84
2017-11-30T07:41:12.330Z,1.87
2017-11-30T07:43:39.903Z,1.92
2017-11-30T07:46:08.360Z,1.91
2017-11-30T07:48:36.808Z,1.95
2017-11-30T07:51:04.409Z,2.17
2017-11-30T07:53:31.984Z,2.23
2017-11-30T07:55:59.541Z,2.22
2017-11-30T07:58:27.199Z,2.24
2017-11-30T08:00:55.662Z,2.17
2017-11-30T08:03:24.242Z,2.14
2017-11-30T08:05:51.800Z,2.10
2017-11-30T08:08:19.355Z,2.27
2017-11-30T08:10:47.606Z,2.13
2017-11-30T08:13:15.171Z,2.24
2017-11-30T08:15:43.700Z,2.18
2017-11-30T08:18:11.262Z,2.35
2017-11-30T08:20:39.704Z,2.07
2017-11-30T08:23:07.266Z,2.03
2017-11-30T08:25:34.821Z,1.91
2017-11-30T08:28:03.283Z,1.88
2017-11-30T08:30:30.846Z,1.81
2017-11-30T08:32:58.565Z,1.79
2017-11-30T08:35:26.124Z,1.74
2017-11-30T08:37:53.682Z,1.73
2017-11-30T08:40:22.062Z,1.72
2017-11-30T08:42:49.622Z,1.66
2017-11-30T08:45:17.189Z,1.72
2017-11-30T08:47:44.754Z,1.81
2017-11-30T08:50:12.317Z,1.84
2017-11-30T08:52:39.932Z,1.92
2017-11-30T08:55:07.497Z,2.03
2017-11-30T08:57:35.095Z,2.20
2017-11-30T09:00:02.754Z,2.37
2017-11-30T09:02:30.315Z,2.46
2017-11-30T09:04:57.883Z,2.44
2017-11-30T09:07:25.475Z,2.65
2017-11-30T09:09:53.037Z,2.60
2017-11-30T09:12:20.649Z,2.59
2017-11-30T09:14:49.107Z,2.63
2017-11-30T09:17:16.672Z,2.90
2017-11-30T09:19:45.144Z,3.02
2017-11-30T09:22:12.708Z,3.05
2017-11-30T09:24:40.267Z,3.12
2017-11-30T09:27:08.519Z,3.26
2017-11-30T09:29:36.114Z,3.23
2017-11-30T09:32:03.678Z,3.06
2017-11-30T09:34:32.107Z,2.85
2017-11-30T09:36:59.750Z,3.06
2017-11-30T09:39:27.353Z,2.91
2017-11-30T09:41:54.907Z,3.09
2017-11-30T09:44:23.358Z,2.98
2017-11-30T09:46:50.918Z,3.08
2017-11-30T09:49:18.483Z,2.89
2017-11-30T09:51:46.051Z,2.90
2017-11-30T09:54:14.565Z,2.97
2017-11-30T09:56:42.134Z,2.91
2017-11-30T09:59:09.707Z,3.01
2017-11-30T10:01:37.270Z,3.04
2017-11-30T10:04:04.869Z,3.21
2017-11-30T10:06:32.431Z,3.42
2017-11-30T10:09:00.892Z,3.62
2017-11-30T10:11:29.012Z,3.63
2017-11-30T10:13:56.602Z,3.63
2017-11-30T10:16:24.197Z,3.53
2017-11-30T10:18:51.762Z,3.72
2017-11-30T10:21:19.417Z,3.58
2017-11-30T10:23:47.080Z,3.84
2017-11-30T10:26:14.639Z,4.00
2017-11-30T10:28:42.244Z,3.85
2017-11-30T10:31:09.802Z,4.12
2017-11-30T10:33:37.406Z,3.93
2017-11-30T10:36:04.975Z,4.13
2017-11-30T10:38:32.554Z,4.12
2017-11-30T10:41:00.172Z,4.26
2017-11-30T10:43:27.743Z,4.12
2017-11-30T10:45:55.333Z,4.02
2017-11-30T10:48:22.899Z,4.05
2017-11-30T10:50:50.461Z,3.94
2017-11-30T10:53:18.030Z,3.89
2017-11-30T10:55:45.584Z,3.88
2017-11-30T10:58:13.182Z,4.07
2017-11-30T11:00:40.799Z,3.93
2017-11-30T11:03:08.397Z,3.89
2017-11-30T11:05:35.966Z,4.02
2017-11-30T11:08:03.577Z,4.02
2017-11-30T11:10:31.243Z,3.95
2017-11-30T11:12:58.805Z,4.07
2017-11-30T11:15:26.358Z,4.12
2017-11-30T11:17:54.030Z,3.97
2017-11-30T11:20:22.416Z,3.91
2017-11-30T11:22:49.975Z,3.90
2017-11-30T11:25:18.513Z,4.10
2017-11-30T11:27:46.079Z,4.15
2017-11-30T11:30:13.637Z,4.41
2017-11-30T11:32:42.218Z,4.23
2017-11-30T11:35:09.782Z,4.32
2017-11-30T11:37:37.341Z,4.50
2017-11-30T11:40:04.911Z,4.42
2017-11-30T11:42:32.474Z,4.32
2017-11-30T11:45:00.946Z,4.60
2017-11-30T11:47:29.421Z,4.57
2017-11-30T11:49:56.981Z,4.75
2017-11-30T11:52:25.399Z,4.63
2017-11-30T11:54:52.966Z,4.92
2017-11-30T11:57:20.525Z,5.08
2017-11-30T11:59:48.988Z,4.83
2017-11-30T12:02:16.573Z,4.76
2017-11-30T12:04:45.028Z,4.78
2017-11-30T12:07:13.526Z,4.96
2017-11-30T12:09:41.095Z,4.63
2017-11-30T12:12:09.553Z,4.50
2017-11-30T12:14:37.110Z,4.78
2017-11-30T12:17:05.562Z,4.85
2017-11-30T12:19:33.114Z,4.79
2017-11-30T12:22:01.593Z,4.84
2017-11-30T12:24:30.046Z,4.91
2017-11-30T12:26:57.616Z,4.77
2017-11-30T12:29:25.174Z,4.82
2017-11-30T12:31:53.537Z,4.86
2017-11-30T12:34:22.095Z,5.12
2017-11-30T12:36:49.693Z,5.08
2017-11-30T12:39:17.252Z,5.20
2017-11-30T12:41:45.586Z,5.21
2017-11-30T12:44:13.186Z,5.27
2017-11-30T12:46:41.084Z,5.28
2017-11-30T12:49:09.560Z,5.15
2017-11-30T12:51:37.123Z,5.27
2017-11-30T12:54:04.682Z,5.20
2017-11-30T12:56:32.243Z,5.28
2017-11-30T12:58:59.844Z,5.30
2017-11-30T13:01:28.269Z,5.38
2017-11-30T13:03:56.129Z,5.37
2017-11-30T13:06:23.792Z,5.30
2017-11-30T13:08:51.448Z,5.36
2017-11-30T13:11:19.156Z,5.39
2017-11-30T13:13:46.749Z,5.48
2017-11-30T13:16:14.303Z,5.41
2017-11-30T13:18:41.901Z,5.28
2017-11-30T13:21:10.365Z,5.20
2017-11-30T13:23:37.960Z,4.96
2017-11-30T13:26:05.521Z,5.05
2017-11-30T13:28:33.443Z,4.83
2017-11-30T13:31:01.037Z,4.74
2017-11-30T13:33:28.596Z,4.57
2017-11-30T13:35:56.153Z,4.42
2017-11-30T13:38:23.816Z,4.45
2017-11-30T13:40:51.376Z,4.51
2017-11-30T13:43:19.997Z,4.39
2017-11-30T13:45:47.553Z,4.39
2017-11-30T13:48:15.103Z,4.37
2017-11-30T13:50:43.669Z,4.31
2017-11-30T13:53:11.332Z,4.27
2017-11-30T13:55:39.803Z,4.15
2017-11-30T13:58:19.187Z,4.13
2017-11-30T14:00:47.599Z,4.19
2017-11-30T14:03:16.112Z,4.17
2017-11-30T14:05:44.572Z,4.23
2017-11-30T14:08:13.016Z,4.26
2017-11-30T14:10:41.495Z,3.97
2017-11-30T14:13:09.820Z,3.97
2017-11-30T14:15:38.137Z,3.98
2017-11-30T14:18:06.462Z,3.99
2017-11-30T14:20:34.926Z,4.09
2017-11-30T14:23:03.239Z,4.14
2017-11-30T14:25:30.833Z,4.19
2017-11-30T14:27:59.280Z,4.11
2017-11-30T14:30:27.616Z,4.08
2017-11-30T14:32:56.060Z,4.18
2017-11-30T14:35:23.620Z,3.94
2017-11-30T14:37:51.964Z,3.79
2017-11-30T14:40:20.417Z,3.94
2017-11-30T14:42:48.692Z,3.93
2017-11-30T14:45:17.029Z,3.95
2017-11-30T14:47:45.516Z,3.89
2017-11-30T14:50:13.109Z,3.84
2017-11-30T14:52:41.460Z,3.77
2017-11-30T14:55:09.944Z,3.58
2017-11-30T14:57:38.443Z,3.67
2017-11-30T15:00:06.001Z,3.52
2017-11-30T15:02:34.372Z,3.36
2017-11-30T15:05:01.965Z,3.31
2017-11-30T15:07:30.307Z,3.26
2017-11-30T15:09:57.892Z,3.08
2017-11-30T15:12:26.349Z,2.98
2017-11-30T15:14:53.948Z,3.01
2017-11-30T15:17:22.497Z,2.90
2017-11-30T15:19:50.873Z,2.83
2017-11-30T15:22:19.296Z,2.75
2017-11-30T15:24:46.879Z,2.70
2017-11-30T15:27:15.278Z,2.61
2017-11-30T15:29:43.683Z,2.57
2017-11-30T15:32:12.129Z,2.48
2017-11-30T15:34:40.630Z,2.42
2017-11-30T15:37:09.021Z,2.38
2017-11-30T15:39:36.628Z,2.34
2017-11-30T15:42:05.113Z,2.29
2017-11-30T15:44:33.453Z,2.20
2017-11-30T15:47:01.787Z,2.13
2017-11-30T15:49:30.184Z,2.06
2017-11-30T15:51:58.525Z,1.98
2017-11-30T15:54:26.825Z,1.91
2017-11-30T15:56:55.156Z,1.84
2017-11-30T15:59:22.755Z,1.86
2017-11-30T16:01:51.092Z,1.81
2017-11-30T16:04:18.652Z,1.75
2017-11-30T16:06:46.208Z,1.66
2017-11-30T16:09:14.577Z,1.63
2017-11-30T16:11:42.135Z,1.61
2017-11-30T16:14:09.691Z,1.59
2017-11-30T16:16:37.257Z,1.83
2017-11-30T16:19:04.818Z,1.95
2017-11-30T16:21:32.428Z,1.74
2017-11-30T16:23:59.985Z,1.64
2017-11-30T16:26:27.596Z,1.46
2017-11-30T16:28:55.159Z,1.37
2017-11-30T16:31:23.772Z,1.24
2017-11-30T16:33:51.336Z,1.19
2017-11-30T16:36:18.896Z,1.18
2017-11-30T16:38:46.451Z,1.14
2017-11-30T16:41:14.052Z,1.08
2017-11-30T16:43:41.623Z,1.00
2017-11-30T16:46:09.184Z,1.03
2017-11-30T16:48:36.776Z,1.10
2017-11-30T16:51:04.335Z,1.13
2017-11-30T16:53:31.908Z,1.14
2017-11-30T16:55:59.475Z,1.09
2017-11-30T16:58:27.037Z,1.10
2017-11-30T17:00:54.595Z,1.17
2017-11-30T17:03:22.158Z,1.18
2017-11-30T17:05:49.732Z,1.22
2017-11-30T17:08:17.292Z,1.27
2017-11-30T17:10:44.859Z,1.27
2017-11-30T17:13:12.419Z,1.31
2017-11-30T17:15:39.977Z,1.32
2017-11-30T17:18:08.256Z,1.36
2017-11-30T17:20:35.880Z,1.38
2017-11-30T17:23:04.273Z,1.39
2017-11-30T17:25:31.863Z,1.38
2017-11-30T17:28:00.126Z,1.41
2017-11-30T17:30:27.719Z,1.44
2017-11-30T17:32:56.107Z,1.42
2017-11-30T17:35:24.555Z,1.42
2017-11-30T17:37:52.156Z,1.32
2017-11-30T17:40:19.723Z,1.26
2017-11-30T17:42:47.281Z,1.24
2017-11-30T17:45:15.725Z,1.23
2017-11-30T17:47:43.284Z,1.22
2017-11-30T17:50:11.839Z,1.20
2017-11-30T17:52:40.328Z,1.22
2017-11-30T17:55:07.921Z,1.20
2017-11-30T17:57:36.186Z,1.19
2017-11-30T18:00:04.444Z,1.15
2017-11-30T18:02:32.905Z,1.11
2017-11-30T18:05:01.332Z,1.12
2017-11-30T18:07:29.937Z,1.09
2017-11-30T18:09:57.635Z,1.06
2017-11-30T18:12:25.261Z,1.07
2017-11-30T18:14:52.823Z,1.06
2017-11-30T18:17:20.424Z,1.08
2017-11-30T18:19:48.028Z,1.10
2017-11-30T18:22:15.636Z,1.12
2017-11-30T18:24:43.197Z,1.22
2017-11-30T18:27:11.682Z,1.36
2017-11-30T18:29:40.033Z,1.58
2017-11-30T18:32:07.599Z,1.65
2017-11-30T18:34:35.172Z,1.57
2017-11-30T18:37:02.843Z,1.65
2017-11-30T18:39:30.453Z,1.60
2017-11-30T18:41:58.035Z,1.75
2017-11-30T18:44:26.436Z,1.63
2017-11-30T18:46:54.779Z,1.69
2017-11-30T18:49:23.148Z,1.50
2017-11-30T18:51:51.753Z,1.56
2017-11-30T18:54:19.321Z,1.54
2017-11-30T18:56:46.884Z,1.53
2017-11-30T18:59:14.442Z,1.46
2017-11-30T19:01:42.000Z,1.42
2017-11-30T19:04:09.611Z,1.44
2017-11-30T19:06:37.172Z,1.63
2017-11-30T19:09:04.736Z,1.47
2017-11-30T19:11:32.296Z,1.46
2017-11-30T19:13:59.900Z,1.43
2017-11-30T19:16:27.504Z,1.42
2017-11-30T19:18:55.064Z,1.48
2017-11-30T19:21:22.632Z,1.37
2017-11-30T19:23:50.281Z,1.56
2017-11-30T19:26:17.849Z,1.64
2017-11-30T19:28:45.445Z,1.56
2017-11-30T19:31:13.135Z,1.46
2017-11-30T19:33:40.736Z,1.48
2017-11-30T19:36:09.231Z,1.42
2017-11-30T19:38:36.797Z,1.34
2017-11-30T19:41:04.438Z,1.24
2017-11-30T19:43:32.906Z,1.23
2017-11-30T19:46:00.525Z,1.19
2017-11-30T19:48:28.081Z,1.21
2017-11-30T19:50:55.702Z,1.41
2017-11-30T19:53:23.269Z,1.48
2017-11-30T19:55:50.924Z,1.58
2017-11-30T19:58:18.487Z,1.48
2017-11-30T20:00:46.144Z,1.42
2017-11-30T20:03:13.708Z,1.39
2017-11-30T20:05:41.369Z,1.36
2017-11-30T20:08:08.936Z,1.47
2017-11-30T20:10:36.495Z,1.61
2017-11-30T20:13:04.061Z,1.59
2017-11-30T20:15:31.716Z,1.55
2017-11-30T20:17:59.345Z,1.50
2017-11-30T20:20:27.232Z,1.57
2017-11-30T20:22:54.809Z,1.53
2017-11-30T20:25:22.378Z,1.73
2017-11-30T20:27:49.944Z,1.70
2017-11-30T20:30:17.596Z,1.86
2017-11-30T20:32:46.104Z,1.80
2017-11-30T20:35:14.828Z,1.73
2017-11-30T20:37:42.388Z,1.51
2017-11-30T20:40:10.721Z,1.35
2017-11-30T20:42:39.334Z,1.26
2017-11-30T20:45:06.952Z,1.15
2017-11-30T20:47:34.524Z,1.07
2017-11-30T20:50:02.119Z,0.92
2017-11-30T20:52:29.699Z,0.90
2017-11-30T20:54:57.400Z,0.86
2017-11-30T20:57:25.800Z,0.88
2017-11-30T20:59:53.375Z,1.14
2017-11-30T21:02:21.001Z,1.25
2017-11-30T21:04:48.579Z,1.16
2017-11-30T21:07:16.140Z,0.98
2017-11-30T21:09:44.481Z,0.93
2017-11-30T21:12:12.980Z,0.88
2017-11-30T21:14:41.372Z,0.87
2017-11-30T21:17:08.988Z,0.80
2017-11-30T21:19:36.561Z,0.75
2017-11-30T21:22:04.922Z,0.70
2017-11-30T21:24:32.533Z,0.65
2017-11-30T21:27:00.101Z,0.66
2017-11-30T21:29:28.635Z,0.66
2017-11-30T21:31:57.057Z,0.67
2017-11-30T21:34:25.541Z,0.67
2017-11-30T21:36:53.113Z,0.66
2017-11-30T21:39:20.755Z,0.64
2017-11-30T21:41:49.113Z,0.65
2017-11-30T21:44:16.796Z,0.66
2017-11-30T21:46:44.364Z,0.64
2017-11-30T21:49:11.932Z,0.62
2017-11-30T21:51:39.501Z,0.58
2017-11-30T21:54:07.151Z,0.60
2017-11-30T21:56:34.768Z,0.76
2017-11-30T21:59:02.368Z,1.00
2017-11-30T22:01:29.939Z,1.04
2017-11-30T22:03:57.555Z,0.94
2017-11-30T22:06:25.120Z,0.83
2017-11-30T22:08:52.688Z,0.86
2017-11-30T22:11:20.274Z,0.75
2017-11-30T22:13:47.896Z,0.78
2017-11-30T22:16:15.504Z,0.74
2017-11-30T22:18:43.075Z,0.72
2017-11-30T22:21:10.647Z,0.70
2017-11-30T22:23:38.276Z,0.70
2017-11-30T22:26:05.852Z,0.65
2017-11-30T22:28:33.499Z,0.56
2017-11-30T22:31:01.168Z,0.59
2017-11-30T22:33:28.737Z,0.63
2017-11-30T22:35:56.392Z,0.60
2017-11-30T22:38:24.018Z,0.68
2017-11-30T22:40:51.594Z,0.78
2017-11-30T22:43:19.160Z,0.66
2017-11-30T22:45:47.651Z,0.58
2017-11-30T22:48:16.144Z,0.68
2017-11-30T22:50:43.716Z,0.64
2017-11-30T22:53:11.322Z,0.56
2017-11-30T22:55:38.882Z,0.38
2017-11-30T22:58:07.405Z,0.30
2017-11-30T23:00:41.770Z,0.27
2017-11-30T23:03:09.347Z,0.24
2017-11-30T23:05:36.939Z,0.17
2017-11-30T23:08:04.503Z,0.16
2017-11-30T23:10:32.126Z,0.20
2017-11-30T23:12:59.663Z,0.21
2017-11-30T23:15:27.291Z,0.18
2017-11-30T23:17:54.871Z,0.19
2017-11-30T23:20:22.435Z,0.20
2017-11-30T23:22:50.694Z,0.19
2017-11-30T23:25:18.988Z,0.23
2017-11-30T23:27:46.562Z,0.27
2017-11-30T23:30:14.128Z,0.27
2017-11-30T23:32:41.749Z,0.27
2017-11-30T23:35:09.320Z,0.32
2017-11-30T23:37:37.793Z,0.28
2017-11-30T23:40:05.460Z,0.34
2017-11-30T23:42:33.076Z,0.41
2017-11-30T23:45:00.676Z,0.45
2017-11-30T23:47:28.256Z,0.49
2017-11-30T23:49:56.608Z,0.39
2017-11-30T23:52:24.283Z,0.37
2017-11-30T23:54:51.908Z,0.35
2017-11-30T23:57:19.474Z,0.31
2017-11-30T23:59:47.069Z,0.31
